createdAt,value
2022-07-25T00:04:09.465Z,21.40
2022-07-25T00:09:15.677Z,21.30
2022-07-25T00:14:18.863Z,21.30
2022-07-25T00:19:23.442Z,21.20
2022-07-25T00:24:26.592Z,21.20
2022-07-25T00:29:29.870Z,21.20
2022-07-25T00:34:34.741Z,21.20
2022-07-25T00:39:38.017Z,21.10
2022-07-25T00:44:41.414Z,21.20
2022-07-25T00:49:45.934Z,21.10
2022-07-25T00:54:49.091Z,21.10
2022-07-25T00:59:52.475Z,21.10
2022-07-25T01:04:57.845Z,21.10
2022-07-25T01:10:01.621Z,21.00
2022-07-25T01:15:04.837Z,21.00
2022-07-25T01:20:17.368Z,21.00
2022-07-25T01:25:22.368Z,21.10
2022-07-25T01:30:26.428Z,21.10
2022-07-25T01:35:31.129Z,21.00
2022-07-25T01:40:34.299Z,21.00
2022-07-25T01:45:37.735Z,21.00
2022-07-25T01:50:42.534Z,20.90
2022-07-25T01:55:46.469Z,20.90
2022-07-25T02:00:49.971Z,20.80
2022-07-25T02:05:54.546Z,20.80
2022-07-25T02:10:58.565Z,20.70
2022-07-25T02:16:01.816Z,20.60
2022-07-25T02:21:13.889Z,20.60
2022-07-25T02:26:17.863Z,20.60
2022-07-25T02:31:21.189Z,20.60
2022-07-25T02:36:25.745Z,20.40
2022-07-25T02:41:28.869Z,20.40
2022-07-25T02:46:32.219Z,20.30
2022-07-25T02:51:36.896Z,20.30
2022-07-25T02:56:40.010Z,20.30
2022-07-25T03:01:43.274Z,20.30
2022-07-25T03:06:47.880Z,20.30
2022-07-25T03:11:52.101Z,20.40
2022-07-25T03:16:55.319Z,20.30
2022-07-25T03:21:59.945Z,20.10
2022-07-25T03:27:03.278Z,20.20
2022-07-25T03:32:07.540Z,20.10
2022-07-25T03:37:12.005Z,20.10
2022-07-25T03:42:15.293Z,20.00
2022-07-25T03:47:20.568Z,20.00
2022-07-25T03:52:25.442Z,20.00
2022-07-25T03:57:28.669Z,20.00
2022-07-25T04:02:32.137Z,20.00
2022-07-25T04:07:37.320Z,20.00
2022-07-25T04:12:41.649Z,20.10
2022-07-25T04:17:44.872Z,20.10
2022-07-25T04:22:50.171Z,20.10
2022-07-25T04:27:53.652Z,20.20
2022-07-25T04:32:56.780Z,20.30
2022-07-25T04:38:01.352Z,20.50
2022-07-25T04:43:04.839Z,20.80
2022-07-25T04:48:09.424Z,21.00
2022-07-25T04:53:14.084Z,21.10
2022-07-25T04:58:17.256Z,21.10
2022-07-25T05:03:20.420Z,21.10
2022-07-25T05:08:25.082Z,21.10
2022-07-25T05:13:28.201Z,21.20
2022-07-25T05:18:31.490Z,21.30
2022-07-25T05:23:35.998Z,21.50
2022-07-25T05:28:39.473Z,21.60
2022-07-25T05:33:42.636Z,21.80
2022-07-25T05:38:47.336Z,22.00
2022-07-25T05:43:50.810Z,22.60
2022-07-25T05:48:54.174Z,23.10
2022-07-25T05:53:58.925Z,23.40
2022-07-25T05:59:02.110Z,23.60
2022-07-25T06:04:05.809Z,23.80
2022-07-25T06:09:10.478Z,24.00
2022-07-25T06:14:13.850Z,24.20
2022-07-25T06:19:17.735Z,24.50
2022-07-25T06:24:22.474Z,24.60
2022-07-25T06:29:25.799Z,24.70
2022-07-25T06:34:29.880Z,25.00
2022-07-25T06:39:34.565Z,26.30
2022-07-25T06:44:37.862Z,27.30
2022-07-25T06:49:41.569Z,28.20
2022-07-25T06:54:46.186Z,29.10
2022-07-25T06:59:49.393Z,29.60
2022-07-25T07:04:52.662Z,30.00
2022-07-25T07:09:57.293Z,30.10
2022-07-25T07:15:00.587Z,30.10
2022-07-25T07:20:06.336Z,30.30
2022-07-25T07:25:11.369Z,30.70
2022-07-25T07:30:18.544Z,30.90
2022-07-25T07:35:25.610Z,31.30
2022-07-25T07:40:32.496Z,32.00
2022-07-25T07:45:35.926Z,31.90
2022-07-25T07:50:39.505Z,32.00
2022-07-25T07:55:48.159Z,32.00
2022-07-25T08:00:52.236Z,32.50
2022-07-25T08:05:55.731Z,32.50
2022-07-25T08:11:00.814Z,32.40
2022-07-25T08:16:04.449Z,32.50
2022-07-25T08:21:08.420Z,32.90
2022-07-25T08:26:14.261Z,32.80
2022-07-25T08:31:17.486Z,33.30
2022-07-25T08:36:20.961Z,33.70
2022-07-25T08:41:25.857Z,33.90
2022-07-25T08:46:30.348Z,33.40
2022-07-25T08:51:35.266Z,33.30
2022-07-25T08:56:39.896Z,33.80
2022-07-25T09:01:43.301Z,34.10
2022-07-25T09:06:51.560Z,34.40
2022-07-25T09:11:56.148Z,34.00
2022-07-25T09:16:59.498Z,34.00
2022-07-25T09:22:04.968Z,33.70
2022-07-25T09:27:12.756Z,34.20
2022-07-25T09:32:18.652Z,34.30
2022-07-25T09:37:27.927Z,34.60
2022-07-25T09:42:34.504Z,34.60
2022-07-25T09:47:39.702Z,34.50
2022-07-25T09:52:43.231Z,34.60
2022-07-25T09:57:49.052Z,35.00
2022-07-25T10:03:02.707Z,34.90
2022-07-25T10:08:09.170Z,35.20
2022-07-25T10:13:17.872Z,35.30
2022-07-25T10:18:23.308Z,35.50
2022-07-25T10:23:27.576Z,36.10
2022-07-25T10:28:40.522Z,36.10
2022-07-25T10:33:44.132Z,36.00
2022-07-25T10:38:47.911Z,35.90
2022-07-25T10:43:53.075Z,36.20
2022-07-25T10:49:01.434Z,36.40
2022-07-25T10:54:14.256Z,36.00
2022-07-25T10:59:28.291Z,36.30
2022-07-25T11:04:31.916Z,36.50
2022-07-25T11:09:35.161Z,35.90
2022-07-25T11:14:42.611Z,36.00
2022-07-25T11:19:54.756Z,35.90
2022-07-25T11:24:58.550Z,35.80
2022-07-25T11:30:09.780Z,35.80
2022-07-25T11:35:14.776Z,35.90
2022-07-25T11:40:19.826Z,36.10
2022-07-25T11:45:26.014Z,36.30
2022-07-25T11:50:31.757Z,36.50
2022-07-25T11:55:37.340Z,36.40
2022-07-25T12:00:43.482Z,36.50
2022-07-25T12:05:46.975Z,36.60
2022-07-25T12:10:51.388Z,37.00
2022-07-25T12:15:57.968Z,37.60
2022-07-25T12:21:01.273Z,38.00
2022-07-25T12:26:04.462Z,38.80
2022-07-25T12:31:10.106Z,38.80
2022-07-25T12:36:14.120Z,39.00
2022-07-25T12:41:22.505Z,38.60
2022-07-25T12:46:27.123Z,38.50
2022-07-25T12:51:30.300Z,38.60
2022-07-25T12:56:33.714Z,38.50
2022-07-25T13:01:38.548Z,38.80
2022-07-25T13:06:41.978Z,39.10
2022-07-25T13:11:45.349Z,39.20
2022-07-25T13:16:50.428Z,39.80
2022-07-25T13:21:53.761Z,40.10
2022-07-25T13:26:57.092Z,40.30
2022-07-25T13:32:02.133Z,38.70
2022-07-25T13:37:05.559Z,37.50
2022-07-25T13:42:09.177Z,37.00
2022-07-25T13:47:13.908Z,36.80
2022-07-25T13:52:17.189Z,36.80
2022-07-25T13:57:20.957Z,36.80
2022-07-25T14:02:26.113Z,36.50
2022-07-25T14:07:29.754Z,36.30
2022-07-25T14:12:33.087Z,36.20
2022-07-25T14:17:39.169Z,36.00
2022-07-25T14:22:44.498Z,35.90
2022-07-25T14:27:48.015Z,35.90
2022-07-25T14:32:52.836Z,36.10
2022-07-25T14:37:56.354Z,36.10
2022-07-25T14:42:59.995Z,36.20
2022-07-25T14:48:06.969Z,36.10
2022-07-25T14:53:10.977Z,36.00
2022-07-25T14:58:16.094Z,35.70
2022-07-25T15:03:21.582Z,35.60
2022-07-25T15:08:25.271Z,35.50
2022-07-25T15:13:31.345Z,35.40
2022-07-25T15:18:58.419Z,35.40
2022-07-25T15:24:00.526Z,35.50
2022-07-25T15:29:05.534Z,35.40
2022-07-25T15:34:10.800Z,35.30
2022-07-25T15:39:14.511Z,35.40
2022-07-25T15:44:18.364Z,35.50
2022-07-25T15:49:24.310Z,35.70
2022-07-25T15:54:29.615Z,36.10
2022-07-25T15:59:33.096Z,36.30
2022-07-25T16:04:37.928Z,35.90
2022-07-25T16:09:43.410Z,35.60
2022-07-25T16:14:47.056Z,35.30
2022-07-25T16:19:52.025Z,34.80
2022-07-25T16:24:55.691Z,34.50
2022-07-25T16:29:59.596Z,33.90
2022-07-25T16:35:04.514Z,31.80
2022-07-25T16:40:09.540Z,25.40
2022-07-25T16:45:13.296Z,23.00
2022-07-25T16:50:18.106Z,22.60
2022-07-25T16:55:21.765Z,22.60
2022-07-25T17:00:25.390Z,22.80
2022-07-25T17:05:30.391Z,22.80
2022-07-25T17:10:34.062Z,22.70
2022-07-25T17:15:37.823Z,22.50
2022-07-25T17:20:42.517Z,22.50
2022-07-25T17:25:50.162Z,22.70
2022-07-25T17:30:54.335Z,22.80
2022-07-25T17:36:00.433Z,22.90
2022-07-25T17:41:04.055Z,22.90
2022-07-25T17:46:10.560Z,23.10
2022-07-25T17:51:15.276Z,23.20
2022-07-25T17:56:19.008Z,23.50
2022-07-25T18:01:22.879Z,23.60
2022-07-25T18:06:30.024Z,23.50
2022-07-25T18:11:33.860Z,23.50
2022-07-25T18:16:37.448Z,23.40
2022-07-25T18:21:42.487Z,23.40
2022-07-25T18:26:46.188Z,23.40
2022-07-25T18:31:49.661Z,23.30
2022-07-25T18:36:54.565Z,23.30
2022-07-25T18:41:58.031Z,23.30
2022-07-25T18:47:01.508Z,23.40
2022-07-25T18:52:07.565Z,23.30
2022-07-25T18:57:11.319Z,23.40
2022-07-25T19:02:15.186Z,23.40
2022-07-25T19:07:20.653Z,23.40
2022-07-25T19:12:26.586Z,23.40
2022-07-25T19:17:30.012Z,23.50
2022-07-25T19:22:35.089Z,23.70
2022-07-25T19:27:40.156Z,23.80
2022-07-25T19:32:44.133Z,23.90
2022-07-25T19:37:48.992Z,23.80
2022-07-25T19:42:52.838Z,23.60
2022-07-25T19:47:56.730Z,23.50
2022-07-25T19:53:03.098Z,23.50
2022-07-25T19:58:08.706Z,23.50
2022-07-25T20:03:12.239Z,23.50
2022-07-25T20:08:17.383Z,23.50
2022-07-25T20:13:20.953Z,23.50
2022-07-25T20:18:24.368Z,23.60
2022-07-25T20:23:30.333Z,23.50
2022-07-25T20:28:33.515Z,23.50
2022-07-25T20:33:37.471Z,23.50
2022-07-25T20:38:42.227Z,23.40
2022-07-25T20:43:46.765Z,23.40
2022-07-25T20:48:50.230Z,23.30
2022-07-25T20:53:55.137Z,23.20
2022-07-25T20:58:58.672Z,23.10
2022-07-25T21:04:07.307Z,23.10
2022-07-25T21:09:12.926Z,23.10
2022-07-25T21:14:16.848Z,23.00
2022-07-25T21:19:21.738Z,23.10
2022-07-25T21:24:26.910Z,23.10
2022-07-25T21:29:30.485Z,23.10
2022-07-25T21:34:34.171Z,22.90
2022-07-25T21:39:39.943Z,22.80
2022-07-25T21:44:44.679Z,22.80
2022-07-25T21:50:05.968Z,22.80
2022-07-25T21:55:11.827Z,22.80
2022-07-25T22:00:16.654Z,22.60
2022-07-25T22:05:20.341Z,22.60
2022-07-25T22:10:24.986Z,22.70
2022-07-25T22:15:28.456Z,22.60
2022-07-25T22:20:31.781Z,22.60
2022-07-25T22:25:36.387Z,22.50
2022-07-25T22:30:39.576Z,22.60
2022-07-25T22:35:42.776Z,22.50
2022-07-25T22:40:47.436Z,22.30
2022-07-25T22:45:51.635Z,22.10
2022-07-25T22:50:54.864Z,22.00
2022-07-25T22:55:59.608Z,22.00
2022-07-25T23:01:02.929Z,22.00
2022-07-25T23:06:06.545Z,22.00
2022-07-25T23:11:11.249Z,21.90
2022-07-25T23:16:14.740Z,21.70
2022-07-25T23:21:18.061Z,21.50
2022-07-25T23:26:22.906Z,21.40
2022-07-25T23:31:26.179Z,21.40
2022-07-25T23:36:29.488Z,21.40
2022-07-25T23:41:34.164Z,21.40
2022-07-25T23:46:39.226Z,21.60
2022-07-25T23:51:42.595Z,21.50
2022-07-25T23:56:47.125Z,21.50
